Time;durP1;ratioP1;P1;durP2;ratioP2;P2;SDS_P1;SDS_P2;PMS_P1;PMS_P2;Temp;Humidity;BMP_temperature;BMP_pressure;BME280_temperature;BME280_humidity;BME280_pressure;Samples;Min_cycle;Max_cycle;Signal;HPM_P1;HPM_P2
2022/01/12 00:02:07;;;;;;;16.25;7.05;;;;;;;;;;5059041;28;20449;-76
2022/01/12 00:04:33;;;;;;;13.00;6.78;;;;;;;;;;5026760;28;20116;-78
2022/01/12 00:06:59;;;;;;;16.15;7.35;;;;;;;;;;5042172;28;20033;-75
2022/01/12 00:09:25;;;;;;;16.92;7.28;;;;;;;;;;5040858;28;20522;-75
2022/01/12 00:11:51;;;;;;;15.98;7.68;;;;;;;;;;5040879;28;20037;-75
2022/01/12 00:14:17;;;;;;;13.38;7.15;;;;;;;;;;5025196;28;20083;-78
2022/01/12 00:16:47;;;;;;;12.10;6.55;;;;;;;;;;5026754;28;20041;-80
2022/01/12 00:19:13;;;;;;;13.77;7.00;;;;;;;;;;5061555;28;20431;-75
2022/01/12 00:21:39;;;;;;;15.23;7.72;;;;;;;;;;5042934;28;20488;-76
2022/01/12 00:24:06;;;;;;;13.73;6.55;;;;;;;;;;5026303;28;20048;-78
2022/01/12 00:34:29;;;;;;;15.15;6.93;;;;;;;;;;5058379;28;20064;-75
2022/01/12 00:36:55;;;;;;;11.95;6.50;;;;;;;;;;5041906;28;20041;-75
2022/01/12 00:39:21;;;;;;;13.15;6.53;;;;;;;;;;5029596;28;20047;-79
2022/01/12 00:41:47;;;;;;;13.77;7.00;;;;;;;;;;5027030;28;20052;-75
2022/01/12 00:44:22;;;;;;;13.23;6.20;;;;;;;;;;5040377;28;20064;-78
2022/01/12 00:46:48;;;;;;;12.30;6.32;;;;;;;;;;5029648;28;20372;-80
2022/01/12 00:49:14;;;;;;;11.77;5.47;;;;;;;;;;5062448;28;20040;-78
2022/01/12 00:51:40;;;;;;;10.18;5.82;;;;;;;;;;5041836;28;20056;-80
2022/01/12 00:54:08;;;;;;;13.65;6.07;;;;;;;;;;5040538;28;20725;-76
2022/01/12 00:56:35;;;;;;;9.70;5.80;;;;;;;;;;5027133;28;20068;-78
2022/01/12 00:59:01;;;;;;;14.35;6.47;;;;;;;;;;5043355;28;20088;-77
2022/01/12 01:01:27;;;;;;;12.50;6.30;;;;;;;;;;5028910;28;20033;-79
2022/01/12 01:03:53;;;;;;;9.95;5.82;;;;;;;;;;5045361;28;20029;-78
2022/01/12 01:06:20;;;;;;;14.15;6.25;;;;;;;;;;5047658;28;20437;-79
2022/01/12 01:08:48;;;;;;;11.93;6.00;;;;;;;;;;5043200;28;20041;-76
2022/01/12 01:11:14;;;;;;;13.27;6.57;;;;;;;;;;5043597;28;20040;-76
2022/01/12 01:13:55;;;;;;;13.02;6.88;;;;;;;;;;5040510;28;20043;-76
2022/01/12 01:16:27;;;;;;;15.90;6.68;;;;;;;;;;5060230;28;20036;-75
2022/01/12 01:27:07;;;;;;;10.00;5.75;;;;;;;;;;5057458;28;20477;-77
2022/01/12 01:29:33;;;;;;;14.15;6.45;;;;;;;;;;5042487;28;20040;-76
2022/01/12 01:31:59;;;;;;;13.75;7.10;;;;;;;;;;5043741;28;20025;-80
2022/01/12 01:34:27;;;;;;;12.82;7.45;;;;;;;;;;5028313;28;20065;-81
2022/01/12 01:36:53;;;;;;;12.52;6.90;;;;;;;;;;5023719;28;20036;-76
2022/01/12 01:39:24;;;;;;;15.18;7.47;;;;;;;;;;5040307;28;20041;-79
2022/01/12 01:41:55;;;;;;;12.52;7.18;;;;;;;;;;5026017;28;20044;-80
2022/01/12 01:55:24;;;;;;;13.80;7.57;;;;;;;;;;5046960;28;20041;-79
2022/01/12 01:57:50;;;;;;;13.50;6.90;;;;;;;;;;5043779;28;20429;-77
2022/01/12 02:00:17;;;;;;;12.65;6.88;;;;;;;;;;5040708;28;20033;-76
2022/01/12 02:02:45;;;;;;;14.02;7.53;;;;;;;;;;5041380;28;20095;-79
2022/01/12 02:05:11;;;;;;;13.75;7.20;;;;;;;;;;5026888;28;20044;-76
2022/01/12 02:07:37;;;;;;;15.13;7.53;;;;;;;;;;5022144;28;20037;-76
2022/01/12 02:10:03;;;;;;;14.32;8.07;;;;;;;;;;5041740;28;20047;-79
2022/01/12 02:12:29;;;;;;;15.40;7.80;;;;;;;;;;5024337;28;20127;-79
2022/01/12 02:14:56;;;;;;;14.02;7.60;;;;;;;;;;5027196;28;20127;-79
2022/01/12 02:17:27;;;;;;;14.00;7.38;;;;;;;;;;5061176;28;20056;-79
2022/01/12 02:20:11;;;;;;;14.38;6.90;;;;;;;;;;5024232;28;20064;-78
2022/01/12 02:36:24;;;;;;;11.85;6.85;;;;;;;;;;5054345;28;20033;-78
2022/01/12 02:41:37;;;;;;;14.40;8.15;;;;;;;;;;5062253;28;20045;-77
2022/01/12 02:54:46;;;;;;;16.77;8.55;;;;;;;;;;5045230;28;20419;-77
2022/01/12 02:57:12;;;;;;;16.08;8.57;;;;;;;;;;5026524;28;20044;-76
2022/01/12 02:59:45;;;;;;;15.30;8.82;;;;;;;;;;5026640;28;20036;-76
2022/01/12 03:04:53;;;;;;;14.90;8.57;;;;;;;;;;5043200;28;20126;-76
2022/01/12 03:07:21;;;;;;;19.33;9.23;;;;;;;;;;5048313;28;20465;-77
2022/01/12 03:09:47;;;;;;;16.40;8.95;;;;;;;;;;5044332;28;20033;-75
2022/01/12 03:12:13;;;;;;;20.23;8.48;;;;;;;;;;5045834;28;20135;-79
2022/01/12 03:14:39;;;;;;;19.05;8.25;;;;;;;;;;5046140;28;20056;-78
2022/01/12 03:17:05;;;;;;;13.93;8.23;;;;;;;;;;5042888;28;20060;-76
2022/01/12 03:19:31;;;;;;;16.90;8.77;;;;;;;;;;5029274;28;20151;-78
2022/01/12 03:21:57;;;;;;;13.25;8.07;;;;;;;;;;5052896;28;20037;-74
2022/01/12 03:24:23;;;;;;;15.93;8.38;;;;;;;;;;5049101;28;20072;-80
2022/01/12 03:26:49;;;;;;;18.52;8.27;;;;;;;;;;5043244;28;20041;-76
2022/01/12 03:29:16;;;;;;;16.02;8.82;;;;;;;;;;5046098;28;20036;-78
2022/01/12 03:31:42;;;;;;;17.65;8.10;;;;;;;;;;5044878;28;20036;-79
2022/01/12 03:34:21;;;;;;;14.40;8.10;;;;;;;;;;5044243;28;20045;-76
2022/01/12 03:37:15;;;;;;;15.90;7.53;;;;;;;;;;5062204;28;20095;-79
2022/01/12 03:39:39;;;;;;;15.65;8.00;;;;;;;;;;5049835;28;20107;-78
2022/01/12 03:42:05;;;;;;;13.70;7.95;;;;;;;;;;5027316;28;20037;-78
2022/01/12 03:44:31;;;;;;;20.63;7.78;;;;;;;;;;5064206;28;20035;-78
2022/01/12 03:46:57;;;;;;;16.48;8.00;;;;;;;;;;5042621;28;20086;-76
2022/01/12 03:49:23;;;;;;;15.02;8.05;;;;;;;;;;5043049;28;20044;-78
2022/01/12 03:51:49;;;;;;;13.75;8.25;;;;;;;;;;5029216;28;20048;-79
2022/01/12 03:54:15;;;;;;;15.25;7.70;;;;;;;;;;5028133;28;20053;-77
2022/01/12 03:56:41;;;;;;;15.27;7.82;;;;;;;;;;5028475;28;20037;-78
2022/01/12 03:59:07;;;;;;;13.18;7.65;;;;;;;;;;5025698;28;20036;-75
2022/01/12 04:01:36;;;;;;;14.40;8.05;;;;;;;;;;5026968;28;20105;-74
2022/01/12 04:04:06;;;;;;;14.13;8.20;;;;;;;;;;5030720;28;20069;-77
2022/01/12 04:09:16;;;;;;;13.90;8.43;;;;;;;;;;5064740;28;20017;-78
2022/01/12 04:11:42;;;;;;;15.43;8.20;;;;;;;;;;5044520;28;20084;-78
2022/01/12 04:14:08;;;;;;;16.88;8.27;;;;;;;;;;5045340;28;20044;-74
2022/01/12 04:16:35;;;;;;;17.05;8.13;;;;;;;;;;5069593;28;20045;-79
2022/01/12 04:19:01;;;;;;;16.33;7.85;;;;;;;;;;5069263;28;20127;-78
2022/01/12 04:21:29;;;;;;;14.00;7.53;;;;;;;;;;5043752;28;20033;-79
2022/01/12 04:23:58;;;;;;;17.80;7.78;;;;;;;;;;5049675;28;20049;-76
2022/01/12 04:26:24;;;;;;;15.43;8.23;;;;;;;;;;5066156;28;20033;-75
2022/01/12 04:28:51;;;;;;;14.50;8.15;;;;;;;;;;5042746;28;20407;-79
2022/01/12 04:31:17;;;;;;;14.65;7.53;;;;;;;;;;5024785;28;20060;-76
2022/01/12 04:33:43;;;;;;;14.40;7.63;;;;;;;;;;5027908;28;20040;-80
2022/01/12 04:36:09;;;;;;;15.57;7.70;;;;;;;;;;5041099;28;20124;-75
2022/01/12 04:38:36;;;;;;;13.57;7.45;;;;;;;;;;5040906;28;20165;-76
2022/01/12 04:41:03;;;;;;;11.73;7.40;;;;;;;;;;5042445;28;20077;-75
2022/01/12 04:43:29;;;;;;;16.33;7.93;;;;;;;;;;5024239;28;20073;-76
2022/01/12 04:50:48;;;;;;;15.57;8.63;;;;;;;;;;5043485;28;20048;-74
2022/01/12 04:53:14;;;;;;;15.73;8.05;;;;;;;;;;5065816;28;20037;-75
2022/01/12 04:55:41;;;;;;;13.23;7.70;;;;;;;;;;5043325;28;20045;-74
2022/01/12 04:58:07;;;;;;;14.52;8.10;;;;;;;;;;5040250;28;20041;-75
2022/01/12 05:00:33;;;;;;;14.25;8.57;;;;;;;;;;5040290;28;20106;-75
2022/01/12 05:13:40;;;;;;;14.50;7.88;;;;;;;;;;5042364;28;20123;-75
2022/01/12 05:16:06;;;;;;;13.65;7.80;;;;;;;;;;5026031;28;20041;-75
2022/01/12 05:18:33;;;;;;;14.98;8.07;;;;;;;;;;5040197;28;20064;-75
2022/01/12 05:20:59;;;;;;;14.25;8.85;;;;;;;;;;5043027;28;20045;-78
2022/01/12 05:23:25;;;;;;;14.10;8.07;;;;;;;;;;5041917;28;20102;-79
2022/01/12 05:25:52;;;;;;;12.93;7.57;;;;;;;;;;5049693;28;20099;-81
2022/01/12 05:28:18;;;;;;;14.93;8.10;;;;;;;;;;5049621;28;20051;-82
2022/01/12 05:30:44;;;;;;;12.57;7.55;;;;;;;;;;5031915;28;20032;-82
2022/01/12 05:33:10;;;;;;;14.68;7.65;;;;;;;;;;5032144;28;20037;-81
2022/01/12 05:35:36;;;;;;;16.02;8.05;;;;;;;;;;5034804;28;20460;-80
2022/01/12 05:38:03;;;;;;;14.38;8.35;;;;;;;;;;5042896;28;20067;-79
2022/01/12 05:40:30;;;;;;;12.25;7.18;;;;;;;;;;5041495;28;20041;-79
2022/01/12 05:42:58;;;;;;;14.23;7.90;;;;;;;;;;5031186;28;20064;-80
2022/01/12 05:45:24;;;;;;;16.17;8.07;;;;;;;;;;5050608;28;20399;-80
2022/01/12 05:50:17;;;;;;;13.25;6.88;;;;;;;;;;5045915;28;20376;-81
2022/01/12 05:52:43;;;;;;;15.13;7.78;;;;;;;;;;5061167;28;20041;-81
2022/01/12 05:55:09;;;;;;;14.15;7.53;;;;;;;;;;5044267;28;20087;-81
2022/01/12 05:57:35;;;;;;;18.08;8.20;;;;;;;;;;5047523;28;20364;-82
2022/01/12 06:00:01;;;;;;;13.10;7.90;;;;;;;;;;5028896;28;20116;-81
2022/01/12 06:02:27;;;;;;;17.33;8.45;;;;;;;;;;5047799;28;20049;-81
2022/01/12 06:04:53;;;;;;;14.90;7.82;;;;;;;;;;5027385;28;20041;-81
2022/01/12 06:07:19;;;;;;;15.38;8.88;;;;;;;;;;5047881;28;20040;-80
2022/01/12 06:09:45;;;;;;;17.27;8.70;;;;;;;;;;5031561;28;20064;-81
2022/01/12 06:12:12;;;;;;;15.60;9.02;;;;;;;;;;5046088;28;20037;-81
2022/01/12 06:14:38;;;;;;;16.15;7.47;;;;;;;;;;5045119;28;20047;-80
2022/01/12 06:17:04;;;;;;;14.55;8.15;;;;;;;;;;5044549;28;20072;-83
2022/01/12 06:19:30;;;;;;;13.88;8.27;;;;;;;;;;5032964;28;20037;-81
2022/01/12 06:21:56;;;;;;;16.10;8.25;;;;;;;;;;5040095;28;20036;-81
2022/01/12 06:24:22;;;;;;;16.55;8.60;;;;;;;;;;5035453;28;20048;-82
2022/01/12 06:26:48;;;;;;;15.15;7.82;;;;;;;;;;5040574;28;20072;-82
2022/01/12 06:31:47;;;;;;;13.73;6.87;;;;;;;;;;5062930;28;20123;-82
2022/01/12 06:34:13;;;;;;;17.40;8.40;;;;;;;;;;5046240;28;20271;-80
2022/01/12 06:36:39;;;;;;;15.82;8.85;;;;;;;;;;5034120;28;20033;-81
2022/01/12 06:39:10;;;;;;;16.25;9.07;;;;;;;;;;5031303;28;20037;-81
2022/01/12 06:41:40;;;;;;;16.75;9.63;;;;;;;;;;5031931;28;20041;-80
2022/01/12 06:44:06;;;;;;;18.90;10.13;;;;;;;;;;5028579;28;20076;-81
2022/01/12 06:46:34;;;;;;;17.10;8.93;;;;;;;;;;5047229;28;20048;-81
2022/01/12 06:49:00;;;;;;;16.95;9.60;;;;;;;;;;5043240;28;20025;-81
2022/01/12 06:51:26;;;;;;;21.88;9.70;;;;;;;;;;5077258;28;20071;-81
2022/01/12 06:53:55;;;;;;;16.60;9.40;;;;;;;;;;5043892;28;20044;-81
2022/01/12 06:56:21;;;;;;;17.08;9.90;;;;;;;;;;5060843;28;20037;-81
2022/01/12 06:58:48;;;;;;;15.70;9.77;;;;;;;;;;5043869;28;20045;-80
2022/01/12 07:01:14;;;;;;;20.17;10.23;;;;;;;;;;5043699;28;20033;-80
2022/01/12 07:03:40;;;;;;;17.35;10.63;;;;;;;;;;5042958;28;20048;-81
2022/01/12 07:06:06;;;;;;;18.33;10.63;;;;;;;;;;5042937;28;20025;-81
2022/01/12 07:08:36;;;;;;;18.58;10.63;;;;;;;;;;5042992;28;20134;-80
2022/01/12 07:11:02;;;;;;;17.27;10.40;;;;;;;;;;5075542;28;20059;-82
2022/01/12 07:13:28;;;;;;;21.23;10.70;;;;;;;;;;5060651;28;20025;-82
2022/01/12 07:15:54;;;;;;;18.63;10.48;;;;;;;;;;5043698;28;20465;-81
2022/01/12 07:18:21;;;;;;;21.27;11.07;;;;;;;;;;5042494;28;20080;-81
2022/01/12 07:20:48;;;;;;;18.35;11.35;;;;;;;;;;5051090;28;20036;-80
2022/01/12 07:23:14;;;;;;;20.10;10.60;;;;;;;;;;5052361;28;20055;-80
2022/01/12 07:25:41;;;;;;;19.20;11.65;;;;;;;;;;5028638;28;20044;-80
2022/01/12 07:28:07;;;;;;;21.83;10.85;;;;;;;;;;5034727;28;20043;-81
2022/01/12 07:30:33;;;;;;;17.02;10.73;;;;;;;;;;5051575;28;20116;-81
2022/01/12 07:32:59;;;;;;;18.52;11.13;;;;;;;;;;5027173;28;20097;-80
2022/01/12 07:35:25;;;;;;;21.15;11.38;;;;;;;;;;5054749;28;20037;-80
2022/01/12 07:37:51;;;;;;;20.42;12.00;;;;;;;;;;5040493;28;20069;-81
2022/01/12 07:40:17;;;;;;;20.42;11.30;;;;;;;;;;5056719;28;20052;-81
2022/01/12 07:42:43;;;;;;;18.73;10.73;;;;;;;;;;5062936;28;20048;-79
2022/01/12 07:45:09;;;;;;;19.23;10.60;;;;;;;;;;5057492;28;20060;-82
2022/01/12 07:47:35;;;;;;;18.73;10.80;;;;;;;;;;5040942;28;20365;-80
2022/01/12 07:50:01;;;;;;;18.48;10.60;;;;;;;;;;5043403;28;20113;-80
2022/01/12 07:52:28;;;;;;;21.08;11.18;;;;;;;;;;5060787;28;20368;-82
2022/01/12 07:54:54;;;;;;;19.55;10.32;;;;;;;;;;5043915;28;20520;-79
2022/01/12 07:57:20;;;;;;;17.90;10.82;;;;;;;;;;5063249;28;20068;-80
2022/01/12 07:59:46;;;;;;;18.55;10.32;;;;;;;;;;5046868;28;20021;-81
2022/01/12 08:02:12;;;;;;;23.02;11.75;;;;;;;;;;5060147;28;20479;-81
2022/01/12 08:04:38;;;;;;;18.30;9.75;;;;;;;;;;5051265;28;20037;-79
2022/01/12 08:07:04;;;;;;;20.58;11.07;;;;;;;;;;5048674;28;20068;-81
2022/01/12 08:09:31;;;;;;;18.75;10.35;;;;;;;;;;5047985;28;20040;-81
2022/01/12 08:11:57;;;;;;;17.73;10.13;;;;;;;;;;5031604;28;20041;-81
2022/01/12 08:14:23;;;;;;;18.75;10.27;;;;;;;;;;5048474;28;20392;-83
2022/01/12 08:16:49;;;;;;;21.15;10.80;;;;;;;;;;5059352;28;20021;-80
2022/01/12 08:19:20;;;;;;;18.00;10.73;;;;;;;;;;5059503;28;20101;-81
2022/01/12 08:21:46;;;;;;;19.33;10.93;;;;;;;;;;5061855;28;20109;-80
2022/01/12 08:24:12;;;;;;;23.65;10.52;;;;;;;;;;5046354;28;20037;-81
2022/01/12 08:26:39;;;;;;;20.90;10.88;;;;;;;;;;5051762;28;20041;-80
2022/01/12 08:29:05;;;;;;;17.08;10.38;;;;;;;;;;5053530;28;20365;-81
2022/01/12 08:31:31;;;;;;;20.45;11.25;;;;;;;;;;5052518;28;20108;-81
2022/01/12 08:33:57;;;;;;;21.30;11.55;;;;;;;;;;5036019;28;20449;-80
2022/01/12 08:36:23;;;;;;;20.42;10.60;;;;;;;;;;5034716;28;20037;-81
2022/01/12 08:38:49;;;;;;;19.38;10.55;;;;;;;;;;5036197;28;20036;-83
2022/01/12 08:41:15;;;;;;;18.58;11.00;;;;;;;;;;5062796;28;20084;-81
2022/01/12 08:43:41;;;;;;;18.63;10.57;;;;;;;;;;5042881;28;20441;-81
2022/01/12 08:46:09;;;;;;;22.63;10.80;;;;;;;;;;5036838;28;20045;-82
2022/01/12 08:48:35;;;;;;;21.75;10.50;;;;;;;;;;5034927;28;20067;-82
2022/01/12 08:51:02;;;;;;;18.40;10.70;;;;;;;;;;5049176;28;20055;-82
2022/01/12 08:53:28;;;;;;;18.88;10.73;;;;;;;;;;5048676;28;20034;-81
2022/01/12 08:55:54;;;;;;;23.98;10.95;;;;;;;;;;5032485;28;20052;-81
2022/01/12 08:58:20;;;;;;;17.63;10.60;;;;;;;;;;5048969;28;20056;-82
2022/01/12 09:00:46;;;;;;;18.30;10.02;;;;;;;;;;5049141;28;20037;-83
2022/01/12 09:03:12;;;;;;;18.80;10.88;;;;;;;;;;5032511;28;20101;-82
2022/01/12 09:05:38;;;;;;;22.42;11.43;;;;;;;;;;5033921;28;20049;-82
2022/01/12 09:08:05;;;;;;;19.33;11.40;;;;;;;;;;5033924;28;20056;-83
2022/01/12 09:10:31;;;;;;;21.45;11.35;;;;;;;;;;5054169;28;20145;-83
2022/01/12 09:12:57;;;;;;;20.73;11.45;;;;;;;;;;5032766;28;20057;-82
2022/01/12 09:15:25;;;;;;;21.42;11.88;;;;;;;;;;5033372;28;20076;-82
2022/01/12 09:17:51;;;;;;;21.00;10.85;;;;;;;;;;5033898;28;20033;-82
2022/01/12 09:20:17;;;;;;;18.88;10.93;;;;;;;;;;5048546;28;20069;-81
2022/01/12 09:22:43;;;;;;;24.10;11.82;;;;;;;;;;5050413;28;20477;-82
2022/01/12 09:25:10;;;;;;;28.52;12.98;;;;;;;;;;5033234;28;20052;-84
2022/01/12 09:27:36;;;;;;;24.67;12.52;;;;;;;;;;5040542;28;20029;-82
2022/01/12 09:30:02;;;;;;;21.98;12.07;;;;;;;;;;5056860;28;20408;-81
2022/01/12 09:32:28;;;;;;;24.13;12.90;;;;;;;;;;5047471;28;20051;-82
2022/01/12 09:34:54;;;;;;;26.27;12.82;;;;;;;;;;5047298;28;20101;-82
2022/01/12 09:37:21;;;;;;;26.92;12.85;;;;;;;;;;5030152;28;20041;-81
2022/01/12 09:39:47;;;;;;;21.70;13.68;;;;;;;;;;5045246;28;20052;-82
2022/01/12 09:42:13;;;;;;;29.52;14.38;;;;;;;;;;5042639;28;20041;-81
2022/01/12 09:44:44;;;;;;;30.83;15.10;;;;;;;;;;5025933;28;20073;-81
2022/01/12 09:47:10;;;;;;;29.70;14.27;;;;;;;;;;5042834;28;20042;-81
2022/01/12 09:49:36;;;;;;;25.15;13.80;;;;;;;;;;5046546;28;20523;-82
2022/01/12 09:52:02;;;;;;;25.67;14.80;;;;;;;;;;5046883;28;20112;-82
2022/01/12 09:54:28;;;;;;;24.55;14.52;;;;;;;;;;5048189;28;20044;-82
2022/01/12 09:56:54;;;;;;;27.30;15.02;;;;;;;;;;5033554;28;20127;-81
2022/01/12 09:59:21;;;;;;;30.88;15.55;;;;;;;;;;5028389;28;20032;-81
2022/01/12 10:01:48;;;;;;;36.20;16.33;;;;;;;;;;5048266;28;20037;-81
2022/01/12 10:04:24;;;;;;;30.50;15.30;;;;;;;;;;5031723;28;20049;-82
2022/01/12 10:06:52;;;;;;;34.58;16.05;;;;;;;;;;5047527;28;20037;-80
2022/01/12 10:09:21;;;;;;;32.20;17.15;;;;;;;;;;5032644;28;20057;-83
2022/01/12 10:11:51;;;;;;;34.80;17.40;;;;;;;;;;5051088;28;20415;-81
2022/01/12 10:14:17;;;;;;;34.33;17.33;;;;;;;;;;5038093;28;20049;-81
2022/01/12 10:16:50;;;;;;;35.63;17.77;;;;;;;;;;5056716;28;20040;-83
2022/01/12 10:19:24;;;;;;;33.10;16.77;;;;;;;;;;5056240;28;20048;-82
2022/01/12 10:21:50;;;;;;;32.65;16.15;;;;;;;;;;5035381;28;20041;-83
2022/01/12 10:24:18;;;;;;;35.17;16.60;;;;;;;;;;5052561;28;20025;-85
2022/01/12 10:26:44;;;;;;;32.97;17.20;;;;;;;;;;5068932;28;20056;-82
2022/01/12 10:29:12;;;;;;;38.95;16.63;;;;;;;;;;5035449;28;20385;-83
2022/01/12 10:31:48;;;;;;;32.53;17.20;;;;;;;;;;5067245;28;20041;-83
2022/01/12 10:34:15;;;;;;;34.17;16.55;;;;;;;;;;5051716;28;20049;-82
2022/01/12 10:36:41;;;;;;;33.50;17.38;;;;;;;;;;5035510;28;20041;-84
2022/01/12 10:39:08;;;;;;;31.63;16.63;;;;;;;;;;5037133;28;20045;-84
2022/01/12 10:41:34;;;;;;;35.80;17.10;;;;;;;;;;5053855;28;20040;-82
2022/01/12 10:44:00;;;;;;;38.28;18.05;;;;;;;;;;5052922;28;20044;-82
2022/01/12 10:46:26;;;;;;;39.85;19.17;;;;;;;;;;5036679;28;20021;-82
2022/01/12 10:48:56;;;;;;;35.85;18.48;;;;;;;;;;5052433;28;20041;-80
2022/01/12 10:51:23;;;;;;;37.50;19.15;;;;;;;;;;5053705;28;20041;-82
2022/01/12 10:53:50;;;;;;;40.08;18.38;;;;;;;;;;5036934;28;20063;-80
2022/01/12 10:56:16;;;;;;;40.83;19.40;;;;;;;;;;5037632;28;20069;-79
2022/01/12 10:58:43;;;;;;;37.22;18.30;;;;;;;;;;5050268;28;20033;-80
2022/01/12 11:01:09;;;;;;;37.03;18.55;;;;;;;;;;5038170;28;20025;-81
2022/01/12 11:03:36;;;;;;;39.05;19.77;;;;;;;;;;5042033;28;20059;-78
2022/01/12 11:06:02;;;;;;;39.40;19.10;;;;;;;;;;5040943;28;20053;-82
2022/01/12 11:08:28;;;;;;;38.42;17.85;;;;;;;;;;5037297;28;20056;-81
2022/01/12 11:10:55;;;;;;;37.53;18.85;;;;;;;;;;5037101;28;20040;-83
2022/01/12 11:13:21;;;;;;;37.63;18.42;;;;;;;;;;5039202;28;20503;-82
2022/01/12 11:15:47;;;;;;;38.17;17.58;;;;;;;;;;5034144;28;20044;-84
2022/01/12 11:18:13;;;;;;;39.67;18.60;;;;;;;;;;5051370;28;20037;-83
2022/01/12 11:20:40;;;;;;;39.78;19.77;;;;;;;;;;5032177;28;20037;-81
2022/01/12 11:23:12;;;;;;;37.10;19.80;;;;;;;;;;5033185;28;20048;-84
2022/01/12 11:25:42;;;;;;;41.58;21.13;;;;;;;;;;5050008;28;20041;-84
2022/01/12 11:28:11;;;;;;;44.30;21.23;;;;;;;;;;5050690;28;20498;-81
2022/01/12 11:30:38;;;;;;;41.60;21.02;;;;;;;;;;5068559;28;20110;-83
2022/01/12 11:33:05;;;;;;;45.58;22.77;;;;;;;;;;5033110;28;20053;-81
2022/01/12 11:35:33;;;;;;;46.47;22.98;;;;;;;;;;5034131;28;20055;-85
2022/01/12 11:38:01;;;;;;;43.05;22.10;;;;;;;;;;5053109;28;20041;-84
2022/01/12 11:40:37;;;;;;;44.58;22.35;;;;;;;;;;5066981;28;20128;-82
2022/01/12 11:43:05;;;;;;;51.08;23.35;;;;;;;;;;5048360;28;20218;-81
2022/01/12 11:45:31;;;;;;;46.60;22.52;;;;;;;;;;5049357;28;20104;-81
2022/01/12 11:47:57;;;;;;;49.33;23.73;;;;;;;;;;5055429;28;20071;-80
2022/01/12 11:50:23;;;;;;;46.88;23.08;;;;;;;;;;5035546;28;20049;-81
2022/01/12 11:52:49;;;;;;;49.35;23.20;;;;;;;;;;5030927;28;20051;-81
2022/01/12 11:55:16;;;;;;;49.00;23.50;;;;;;;;;;5048612;28;20128;-82
2022/01/12 11:57:47;;;;;;;49.85;23.00;;;;;;;;;;5031664;28;20037;-81
2022/01/12 12:00:30;;;;;;;49.95;23.48;;;;;;;;;;5032866;28;20423;-82
2022/01/12 12:02:56;;;;;;;50.15;24.55;;;;;;;;;;5035164;28;20457;-81
2022/01/12 12:05:40;;;;;;;53.13;23.88;;;;;;;;;;5034644;28;20066;-82
2022/01/12 12:08:06;;;;;;;51.78;24.88;;;;;;;;;;5050047;28;20472;-81
2022/01/12 12:10:36;;;;;;;51.63;24.67;;;;;;;;;;5049949;28;20033;-81
2022/01/12 12:13:02;;;;;;;54.67;25.65;;;;;;;;;;5033666;28;20032;-84
2022/01/12 12:15:28;;;;;;;54.42;25.17;;;;;;;;;;5050003;28;20055;-81
2022/01/12 12:17:55;;;;;;;50.15;24.63;;;;;;;;;;5035818;28;20045;-80
2022/01/12 12:20:21;;;;;;;58.17;26.17;;;;;;;;;;5033824;28;20041;-83
2022/01/12 12:22:48;;;;;;;55.50;25.90;;;;;;;;;;5049182;28;20044;-83
2022/01/12 12:25:18;;;;;;;48.17;25.13;;;;;;;;;;5033605;28;20041;-81
2022/01/12 12:27:45;;;;;;;54.65;27.67;;;;;;;;;;5051349;28;20063;-83
2022/01/12 12:30:15;;;;;;;57.47;27.30;;;;;;;;;;5036824;28;20040;-82
2022/01/12 12:32:42;;;;;;;56.05;27.88;;;;;;;;;;5039551;28;20024;-80
2022/01/12 12:35:10;;;;;;;55.50;26.63;;;;;;;;;;5040016;28;20044;-80
2022/01/12 12:37:37;;;;;;;59.92;27.58;;;;;;;;;;5040128;28;20044;-82
2022/01/12 12:40:13;;;;;;;58.85;27.45;;;;;;;;;;5038311;28;20097;-82
2022/01/12 12:42:39;;;;;;;60.90;27.77;;;;;;;;;;5076406;28;20048;-81
2022/01/12 12:45:05;;;;;;;57.50;26.23;;;;;;;;;;5044397;28;20065;-82
2022/01/12 12:47:32;;;;;;;60.33;29.13;;;;;;;;;;5043571;28;20041;-80
2022/01/12 12:50:01;;;;;;;59.33;28.38;;;;;;;;;;5039596;28;20091;-82
2022/01/12 12:52:30;;;;;;;64.93;29.17;;;;;;;;;;5037603;28;20041;-83
2022/01/12 12:54:57;;;;;;;62.53;28.83;;;;;;;;;;5040479;28;20092;-81
2022/01/12 12:57:23;;;;;;;67.97;31.20;;;;;;;;;;5058797;28;20037;-80
2022/01/12 13:00:03;;;;;;;67.40;29.35;;;;;;;;;;5040931;28;20090;-81
2022/01/12 13:02:37;;;;;;;68.63;30.45;;;;;;;;;;5056082;28;20045;-81
2022/01/12 13:05:10;;;;;;;75.53;32.20;;;;;;;;;;5037806;28;20037;-80
2022/01/12 13:07:43;;;;;;;73.97;32.55;;;;;;;;;;5052639;28;20052;-81
2022/01/12 13:10:16;;;;;;;65.93;32.38;;;;;;;;;;5035978;28;20088;-80
2022/01/12 13:12:45;;;;;;;67.00;31.02;;;;;;;;;;5055273;28;20124;-82
2022/01/12 13:15:17;;;;;;;73.50;32.08;;;;;;;;;;5050626;28;20051;-83
2022/01/12 13:17:43;;;;;;;64.28;30.98;;;;;;;;;;5033309;28;20067;-81
2022/01/12 13:22:46;;;;;;;75.30;32.35;;;;;;;;;;5047539;28;20044;-83
2022/01/12 13:25:14;;;;;;;73.43;33.65;;;;;;;;;;5050533;28;20037;-84
2022/01/12 13:27:40;;;;;;;73.00;33.38;;;;;;;;;;5052701;28;20037;-84
2022/01/12 13:30:07;;;;;;;75.38;33.13;;;;;;;;;;5035446;28;20072;-82
2022/01/12 13:32:33;;;;;;;74.22;34.15;;;;;;;;;;5034015;28;20068;-82
2022/01/12 13:35:01;;;;;;;74.45;33.90;;;;;;;;;;5032327;28;20111;-83
2022/01/12 13:37:27;;;;;;;73.05;35.53;;;;;;;;;;5032897;28;20052;-83
2022/01/12 13:40:07;;;;;;;74.18;34.00;;;;;;;;;;5055023;28;20096;-84
2022/01/12 13:42:33;;;;;;;74.80;34.42;;;;;;;;;;5045886;28;20087;-83
2022/01/12 13:45:09;;;;;;;83.22;35.40;;;;;;;;;;5045475;28;20025;-82
2022/01/12 13:47:37;;;;;;;86.63;36.65;;;;;;;;;;5078702;28;20096;-82
2022/01/12 13:50:06;;;;;;;78.32;36.25;;;;;;;;;;5040742;28;20170;-82
2022/01/12 13:52:32;;;;;;;80.65;35.92;;;;;;;;;;5039727;28;20039;-82
2022/01/12 13:55:07;;;;;;;85.35;35.00;;;;;;;;;;5060873;28;20049;-84
2022/01/12 13:57:33;;;;;;;82.38;37.08;;;;;;;;;;5044737;28;20025;-82
2022/01/12 13:59:59;;;;;;;82.38;36.67;;;;;;;;;;5045344;28;20029;-82
2022/01/12 14:02:28;;;;;;;84.93;36.70;;;;;;;;;;5073555;28;20060;-84
2022/01/12 14:05:04;;;;;;;92.97;38.72;;;;;;;;;;5032974;28;20041;-83
2022/01/12 14:07:35;;;;;;;83.03;36.50;;;;;;;;;;5031238;28;20033;-83
2022/01/12 14:10:01;;;;;;;90.53;36.90;;;;;;;;;;5029975;28;20041;-82
2022/01/12 14:12:27;;;;;;;81.93;35.97;;;;;;;;;;5029001;28;20052;-82
2022/01/12 14:14:57;;;;;;;92.55;39.70;;;;;;;;;;5045287;28;20064;-82
2022/01/12 14:17:30;;;;;;;92.05;40.05;;;;;;;;;;5028602;28;20037;-81
2022/01/12 14:20:21;;;;;;;93.22;38.88;;;;;;;;;;5028847;28;20054;-84
2022/01/12 14:22:48;;;;;;;93.90;40.75;;;;;;;;;;5029625;28;20064;-84
2022/01/12 14:25:14;;;;;;;88.60;39.22;;;;;;;;;;5029439;28;20124;-84
2022/01/12 14:27:41;;;;;;;83.68;37.97;;;;;;;;;;5030586;28;20438;-84
2022/01/12 14:30:08;;;;;;;86.80;37.38;;;;;;;;;;5047319;28;20037;-82
2022/01/12 14:32:36;;;;;;;91.25;39.58;;;;;;;;;;5046184;28;20037;-83
2022/01/12 14:35:03;;;;;;;78.97;34.88;;;;;;;;;;5046310;28;20041;-85
2022/01/12 14:37:29;;;;;;;77.90;34.72;;;;;;;;;;5046271;28;20041;-81
2022/01/12 14:39:55;;;;;;;71.57;36.13;;;;;;;;;;5045205;28;20072;-82
2022/01/12 14:42:21;;;;;;;65.45;30.25;;;;;;;;;;5030445;28;20041;-83
2022/01/12 14:44:48;;;;;;;51.60;24.30;;;;;;;;;;5028704;28;20040;-83
2022/01/12 14:47:14;;;;;;;37.10;19.83;;;;;;;;;;5028216;28;20033;-83
2022/01/12 14:49:40;;;;;;;41.13;19.98;;;;;;;;;;5032604;28;20381;-82
2022/01/12 14:52:06;;;;;;;42.30;20.48;;;;;;;;;;5031083;28;20041;-82
2022/01/12 14:54:32;;;;;;;35.40;19.48;;;;;;;;;;5052761;28;20084;-82
2022/01/12 14:56:59;;;;;;;41.72;19.85;;;;;;;;;;5050695;28;20037;-83
2022/01/12 14:59:25;;;;;;;38.28;18.77;;;;;;;;;;5045767;28;20465;-82
2022/01/12 15:01:51;;;;;;;34.92;17.92;;;;;;;;;;5029133;28;20040;-82
2022/01/12 15:04:17;;;;;;;43.88;20.98;;;;;;;;;;5045375;28;20049;-82
2022/01/12 15:06:43;;;;;;;46.67;23.98;;;;;;;;;;5044826;28;20056;-83
2022/01/12 15:09:09;;;;;;;46.78;23.52;;;;;;;;;;5045831;28;20044;-80
2022/01/12 15:11:40;;;;;;;52.97;26.13;;;;;;;;;;5044667;28;20033;-83
2022/01/12 15:17:08;;;;;;;62.42;26.35;;;;;;;;;;5010238;28;20080;-82
2022/01/12 15:19:34;;;;;;;57.58;26.27;;;;;;;;;;5042135;28;20049;-82
2022/01/12 15:22:00;;;;;;;51.92;24.63;;;;;;;;;;5028464;28;20146;-82
2022/01/12 15:24:27;;;;;;;45.53;22.55;;;;;;;;;;5046601;28;20394;-82
2022/01/12 15:26:53;;;;;;;47.22;22.02;;;;;;;;;;5028688;28;20036;-82
2022/01/12 15:29:19;;;;;;;46.80;22.63;;;;;;;;;;5044052;28;20372;-82
2022/01/12 15:31:45;;;;;;;44.35;22.00;;;;;;;;;;5030650;28;20041;-82
2022/01/12 15:34:11;;;;;;;50.33;23.35;;;;;;;;;;5031789;28;20041;-82
2022/01/12 15:36:37;;;;;;;47.45;23.70;;;;;;;;;;5030293;28;20052;-84
2022/01/12 15:39:03;;;;;;;51.25;23.60;;;;;;;;;;5046949;28;20110;-82
2022/01/12 15:41:29;;;;;;;52.80;24.55;;;;;;;;;;5028952;28;20071;-82
2022/01/12 15:43:55;;;;;;;49.55;25.08;;;;;;;;;;5029767;28;20041;-82
2022/01/12 15:46:21;;;;;;;57.13;24.95;;;;;;;;;;5031245;28;20111;-83
2022/01/12 15:48:47;;;;;;;55.42;25.90;;;;;;;;;;5032689;28;20064;-83